Time;durP1;ratioP1;P1;durP2;ratioP2;P2;SDS_P1;SDS_P2;PMS_P1;PMS_P2;Temp;Humidity;BMP_temperature;BMP_pressure;BME280_temperature;BME280_humidity;BME280_pressure;Samples;Min_cycle;Max_cycle;Signal;HPM_P1;HPM_P2
2023/03/25 00:04:11;;;;;;;3.50;0.90;;;10.90;99.90;;;;;;10305575;28;20233;-72
2023/03/25 00:09:12;;;;;;;1.13;0.50;;;10.50;99.90;;;;;;10315251;28;20335;-75
2023/03/25 00:14:15;;;;;;;1.67;0.90;;;10.30;99.90;;;;;;10321813;28;20218;-76
2023/03/25 00:19:17;;;;;;;1.20;0.30;;;10.10;99.90;;;;;;10308359;28;20759;-71
2023/03/25 00:24:17;;;;;;;1.70;0.50;;;10.00;99.90;;;;;;10315535;28;20335;-75
2023/03/25 00:29:18;;;;;;;0.67;0.43;;;9.90;99.90;;;;;;10307619;28;20292;-73
2023/03/25 00:34:19;;;;;;;2.07;0.50;;;9.80;99.90;;;;;;10316592;28;20722;-70
2023/03/25 00:39:19;;;;;;;1.93;0.70;;;9.70;99.90;;;;;;10314091;28;20283;-68
2023/03/25 00:44:21;;;;;;;1.97;0.50;;;9.70;99.90;;;;;;10323039;28;20226;-69
2023/03/25 00:49:27;;;;;;;1.83;0.50;;;9.70;99.90;;;;;;10327498;28;20680;-68
2023/03/25 00:54:27;;;;;;;1.60;0.60;;;9.70;99.90;;;;;;10310890;28;20235;-68
2023/03/25 00:59:28;;;;;;;1.23;0.40;;;9.70;99.90;;;;;;10311340;28;20232;-68
2023/03/25 01:04:29;;;;;;;3.67;0.63;;;9.70;99.90;;;;;;10317771;28;20233;-67
2023/03/25 01:09:30;;;;;;;0.77;0.40;;;9.70;99.90;;;;;;10310683;28;20230;-67
2023/03/25 01:14:33;;;;;;;0.73;0.23;;;9.70;99.90;;;;;;10310042;28;20719;-67
2023/03/25 01:19:33;;;;;;;3.93;0.70;;;9.80;99.90;;;;;;10311009;28;20229;-69
2023/03/25 01:24:34;;;;;;;2.50;0.87;;;9.80;99.90;;;;;;10317371;28;20219;-70
2023/03/25 01:29:34;;;;;;;4.23;0.73;;;9.90;99.90;;;;;;10310858;28;20245;-68
2023/03/25 01:34:37;;;;;;;3.37;1.10;;;9.90;99.90;;;;;;10309113;28;20223;-68
2023/03/25 01:39:38;;;;;;;3.43;1.00;;;10.00;99.90;;;;;;10317708;28;20241;-68
2023/03/25 01:44:38;;;;;;;2.80;1.03;;;10.00;99.90;;;;;;10308258;28;20721;-68
2023/03/25 01:49:44;;;;;;;2.53;1.30;;;10.00;99.90;;;;;;10310007;28;20670;-68
2023/03/25 01:54:46;;;;;;;3.00;1.13;;;10.10;99.90;;;;;;10306484;28;20313;-68
2023/03/25 01:59:47;;;;;;;4.33;1.20;;;10.10;99.90;;;;;;10312838;28;20226;-67
2023/03/25 02:04:57;;;;;;;4.27;1.17;;;10.10;99.90;;;;;;10311577;28;20260;-67
2023/03/25 02:10:01;;;;;;;7.73;1.47;;;10.10;99.90;;;;;;10304287;28;20230;-68
2023/03/25 02:15:07;;;;;;;3.90;1.60;;;10.00;99.90;;;;;;10319006;28;20325;-68
2023/03/25 02:20:53;;;;;;;4.67;1.27;;;9.90;99.90;;;;;;10305111;28;20249;-69
2023/03/25 02:26:18;;;;;;;5.00;0.80;;;9.80;99.90;;;;;;10293895;28;20305;-69
2023/03/25 02:31:47;;;;;;;3.40;0.90;;;9.70;99.90;;;;;;10313997;28;20252;-68
2023/03/25 02:37:04;;;;;;;3.57;0.93;;;9.70;99.90;;;;;;10311891;28;20232;-69
2023/03/25 02:42:14;;;;;;;2.27;0.77;;;9.70;99.90;;;;;;10332117;28;20304;-69
2023/03/25 02:47:20;;;;;;;4.23;1.10;;;9.60;99.90;;;;;;10309825;28;20221;-68
2023/03/25 02:52:38;;;;;;;1.27;0.60;;;9.60;99.90;;;;;;10312292;28;20222;-68
2023/03/25 02:57:42;;;;;;;2.00;0.63;;;9.60;99.90;;;;;;10314477;28;20228;-68
2023/03/25 03:02:58;;;;;;;1.70;0.30;;;9.60;99.90;;;;;;10303984;28;20845;-68
2023/03/25 03:08:25;;;;;;;1.77;0.63;;;9.50;99.90;;;;;;10303099;28;20260;-68
2023/03/25 03:13:38;;;;;;;0.80;0.27;;;9.40;99.90;;;;;;10305638;28;20232;-69
2023/03/25 03:19:01;;;;;;;1.07;0.40;;;9.30;99.90;;;;;;10313001;28;20264;-69
2023/03/25 03:24:18;;;;;;;0.57;0.30;;;9.20;99.90;;;;;;10302918;28;20715;-71
2023/03/25 03:29:27;;;;;;;1.23;0.60;;;9.20;99.90;;;;;;10307341;28;20218;-69
2023/03/25 03:34:42;;;;;;;2.23;0.57;;;9.20;99.90;;;;;;10306344;28;20225;-69
2023/03/25 03:39:46;;;;;;;2.37;0.40;;;9.10;99.90;;;;;;10303319;28;20234;-69
2023/03/25 03:44:52;;;;;;;1.63;0.50;;;9.10;99.90;;;;;;10310119;28;20242;-67
2023/03/25 03:50:01;;;;;;;1.83;0.60;;;9.20;99.90;;;;;;10309165;28;20304;-68
2023/03/25 03:55:27;;;;;;;2.17;0.67;;;9.20;99.90;;;;;;10301580;28;20226;-68
2023/03/25 04:00:38;;;;;;;5.13;0.87;;;9.20;99.90;;;;;;10305917;28;20242;-69
2023/03/25 04:05:45;;;;;;;6.83;1.00;;;9.20;99.90;;;;;;10310623;28;20214;-70
2023/03/25 04:11:18;;;;;;;2.70;0.70;;;9.20;99.90;;;;;;10310371;28;20230;-68
2023/03/25 04:16:19;;;;;;;3.20;0.93;;;9.20;99.90;;;;;;10310803;28;20595;-68
2023/03/25 04:21:20;;;;;;;3.43;1.20;;;9.30;99.90;;;;;;10314001;28;20231;-69
2023/03/25 04:26:21;;;;;;;3.17;1.73;;;9.20;99.90;;;;;;10317745;28;20229;-68
2023/03/25 04:31:22;;;;;;;1.57;0.80;;;9.20;99.90;;;;;;10312074;28;20234;-67
2023/03/25 04:36:32;;;;;;;3.80;0.80;;;9.30;99.90;;;;;;10323978;28;20257;-67
2023/03/25 04:41:33;;;;;;;1.93;0.97;;;9.30;99.90;;;;;;10319001;28;20230;-67
2023/03/25 04:46:35;;;;;;;3.10;0.93;;;9.30;99.90;;;;;;10323089;28;20251;-68
2023/03/25 04:51:35;;;;;;;5.57;1.13;;;9.30;99.90;;;;;;10317927;28;20249;-67
2023/03/25 04:56:36;;;;;;;5.93;1.20;;;9.30;99.90;;;;;;10319072;28;20384;-67
2023/03/25 05:01:41;;;;;;;3.10;1.00;;;9.20;99.90;;;;;;10315998;28;20229;-67
2023/03/25 05:06:49;;;;;;;2.20;0.70;;;9.20;99.90;;;;;;10308732;28;20242;-67
2023/03/25 05:11:51;;;;;;;6.03;1.20;;;9.20;99.90;;;;;;10313756;28;20275;-67
2023/03/25 05:16:58;;;;;;;5.03;0.90;;;9.30;99.90;;;;;;10317381;28;20236;-67
2023/03/25 05:22:01;;;;;;;2.10;0.80;;;9.30;99.90;;;;;;10306589;28;20317;-66
2023/03/25 05:27:01;;;;;;;3.67;1.03;;;9.30;99.90;;;;;;10313487;28;20303;-69
2023/03/25 05:32:02;;;;;;;3.07;1.27;;;9.30;99.90;;;;;;10306580;28;20313;-67
2023/03/25 05:37:02;;;;;;;4.43;1.33;;;9.30;99.90;;;;;;10320088;28;20233;-68
2023/03/25 05:42:06;;;;;;;3.20;0.90;;;9.30;99.90;;;;;;10313515;28;20231;-68
2023/03/25 05:47:06;;;;;;;3.73;0.93;;;9.30;99.90;;;;;;10306105;28;20230;-68
2023/03/25 05:52:08;;;;;;;3.43;1.00;;;9.20;99.90;;;;;;10318917;28;20225;-68
2023/03/25 05:57:08;;;;;;;4.37;1.40;;;9.00;99.90;;;;;;10313192;28;20332;-71
2023/03/25 06:02:14;;;;;;;3.43;1.00;;;8.80;99.90;;;;;;10311160;28;20233;-67
2023/03/25 06:07:21;;;;;;;3.53;1.40;;;8.80;99.90;;;;;;10306768;28;20230;-66
2023/03/25 06:12:22;;;;;;;4.40;1.33;;;8.90;99.90;;;;;;10309838;28;20230;-66
2023/03/25 06:17:23;;;;;;;4.10;1.40;;;8.90;99.90;;;;;;10318417;28;20237;-65
2023/03/25 06:22:25;;;;;;;4.47;1.57;;;9.20;99.90;;;;;;10303920;28;20251;-70
2023/03/25 06:27:26;;;;;;;4.67;1.03;;;9.60;99.90;;;;;;10315796;28;20664;-69
2023/03/25 06:32:27;;;;;;;3.47;1.40;;;9.70;99.90;;;;;;10308300;28;20236;-69
2023/03/25 06:37:28;;;;;;;2.50;1.03;;;9.90;99.90;;;;;;10313824;28;20217;-67
2023/03/25 06:42:28;;;;;;;6.40;1.63;;;10.30;99.90;;;;;;10312979;28;20304;-67
2023/03/25 06:47:29;;;;;;;2.57;1.30;;;10.80;99.90;;;;;;10327124;28;20205;-67
2023/03/25 06:52:30;;;;;;;2.20;1.00;;;11.40;99.90;;;;;;10311177;28;20225;-67
2023/03/25 06:57:33;;;;;;;7.63;1.53;;;12.00;99.90;;;;;;10317782;28;20244;-68
2023/03/25 07:02:34;;;;;;;4.33;1.20;;;12.40;99.90;;;;;;10305891;28;20250;-69
2023/03/25 07:07:34;;;;;;;6.73;1.43;;;12.50;99.90;;;;;;10322651;28;20760;-69
2023/03/25 07:12:35;;;;;;;4.83;1.47;;;12.50;99.90;;;;;;10305297;28;20284;-69
2023/03/25 07:17:36;;;;;;;6.27;1.63;;;12.60;99.90;;;;;;10306401;28;20313;-68
2023/03/25 07:22:36;;;;;;;4.87;1.60;;;12.80;99.90;;;;;;10302573;28;20688;-69
2023/03/25 07:27:37;;;;;;;5.30;1.87;;;12.50;99.90;;;;;;10305185;28;20227;-71
2023/03/25 07:32:37;;;;;;;8.33;1.90;;;12.70;99.90;;;;;;10306854;28;20758;-68
2023/03/25 07:37:38;;;;;;;6.20;1.97;;;12.90;99.90;;;;;;10304987;28;20600;-71
2023/03/25 07:42:38;;;;;;;11.67;2.40;;;13.00;99.90;;;;;;10315640;28;20232;-68
2023/03/25 07:47:39;;;;;;;7.37;1.73;;;12.90;99.90;;;;;;10318869;28;20625;-70
2023/03/25 07:52:40;;;;;;;8.97;1.97;;;13.30;99.90;;;;;;10311947;28;20237;-70
2023/03/25 07:57:41;;;;;;;7.57;2.20;;;15.00;99.90;;;;;;10315118;28;20718;-69
2023/03/25 08:02:41;;;;;;;8.70;2.00;;;17.90;99.90;;;;;;10312000;28;20261;-68
2023/03/25 08:07:42;;;;;;;6.83;2.20;;;21.00;95.10;;;;;;10314988;28;20249;-64
2023/03/25 08:12:43;;;;;;;8.00;2.40;;;20.90;89.50;;;;;;10317221;28;20221;-65
2023/03/25 08:17:44;;;;;;;8.30;2.23;;;19.80;88.40;;;;;;10315348;28;20261;-66
2023/03/25 08:22:45;;;;;;;6.90;2.07;;;17.90;92.50;;;;;;10310594;28;20226;-64
2023/03/25 08:27:46;;;;;;;7.63;2.03;;;17.50;94.20;;;;;;10314199;28;20989;-71
2023/03/25 08:32:53;;;;;;;5.77;2.07;;;17.80;93.30;;;;;;10332840;28;20255;-72
2023/03/25 08:37:53;;;;;;;5.30;1.80;;;18.50;90.80;;;;;;10315717;28;20813;-72
2023/03/25 08:42:54;;;;;;;8.03;2.13;;;16.80;93.40;;;;;;10321657;28;20247;-71
2023/03/25 08:47:54;;;;;;;8.00;2.10;;;16.40;96.00;;;;;;10315256;28;20284;-71
2023/03/25 08:52:58;;;;;;;6.27;1.83;;;17.00;93.60;;;;;;10307119;28;20611;-71
2023/03/25 08:58:02;;;;;;;12.47;2.20;;;16.10;95.00;;;;;;10317338;28;20225;-71
2023/03/25 09:03:04;;;;;;;6.57;1.67;;;15.00;98.20;;;;;;10315166;28;20218;-73
2023/03/25 09:08:05;;;;;;;7.37;2.27;;;14.50;99.50;;;;;;10314606;28;20233;-73
2023/03/25 09:13:05;;;;;;;9.07;1.77;;;14.30;99.90;;;;;;10313702;28;20241;-72
2023/03/25 09:18:06;;;;;;;8.07;2.10;;;14.00;99.90;;;;;;10314642;28;20756;-72
2023/03/25 09:23:08;;;;;;;9.13;2.00;;;13.90;99.90;;;;;;10313614;28;20326;-73
2023/03/25 09:28:09;;;;;;;8.30;2.20;;;13.80;99.90;;;;;;10313135;28;20380;-73
2023/03/25 09:33:10;;;;;;;7.43;1.87;;;13.40;99.90;;;;;;10308042;28;20349;-67
2023/03/25 09:38:12;;;;;;;7.73;1.90;;;13.20;99.90;;;;;;10305617;28;20234;-68
2023/03/25 09:43:31;;;;;;;7.87;1.80;;;13.30;99.90;;;;;;10305652;28;20229;-68
2023/03/25 09:48:45;;;;;;;7.17;1.37;;;13.10;99.90;;;;;;10309236;28;20273;-68
2023/03/25 09:53:47;;;;;;;7.27;2.07;;;12.90;99.90;;;;;;10311460;28;20225;-68
2023/03/25 09:58:51;;;;;;;8.27;2.10;;;12.50;99.90;;;;;;10305543;28;20241;-68
2023/03/25 10:04:06;;;;;;;8.87;2.00;;;12.10;99.90;;;;;;10312194;28;20222;-72
2023/03/25 10:09:37;;;;;;;5.27;1.60;;;11.70;99.90;;;;;;10318909;28;20233;-74
2023/03/25 10:15:15;;;;;;;5.90;1.90;;;14.20;99.90;;;;;;10321230;28;20214;-73
2023/03/25 10:20:20;;;;;;;5.97;1.73;;;16.30;99.90;;;;;;10327140;28;20241;-73
2023/03/25 10:25:26;;;;;;;2.20;0.70;;;15.50;99.90;;;;;;10309167;28;20190;-73
2023/03/25 10:30:37;;;;;;;1.80;0.60;;;13.20;99.90;;;;;;10317451;28;20276;-73
2023/03/25 10:35:46;;;;;;;3.67;0.90;;;11.20;99.90;;;;;;10312545;28;20694;-70
2023/03/25 10:41:08;;;;;;;3.30;0.80;;;10.60;99.90;;;;;;10312162;28;20775;-72
2023/03/25 10:46:33;;;;;;;3.80;1.00;;;11.30;99.90;;;;;;10293057;28;20242;-71
2023/03/25 10:51:35;;;;;;;2.77;0.80;;;12.10;99.90;;;;;;10314086;28;20245;-69
2023/03/25 10:56:44;;;;;;;2.10;1.00;;;13.40;99.90;;;;;;10320152;28;20234;-69
2023/03/25 11:01:46;;;;;;;1.63;0.70;;;15.70;99.90;;;;;;10312885;28;20229;-70
2023/03/25 11:06:54;;;;;;;1.53;0.90;;;18.90;99.90;;;;;;10327099;28;20579;-73
2023/03/25 11:11:58;;;;;;;3.33;0.83;;;22.10;96.90;;;;;;10316986;28;20354;-74
2023/03/25 11:17:08;;;;;;;3.70;0.80;;;24.90;79.30;;;;;;10308787;28;20231;-77
2023/03/25 11:22:23;;;;;;;3.47;1.10;;;25.30;63.80;;;;;;10311324;28;20722;-74
2023/03/25 11:27:28;;;;;;;1.70;1.03;;;24.70;61.20;;;;;;10312827;28;20263;-75
2023/03/25 11:32:37;;;;;;;3.97;1.20;;;23.00;65.60;;;;;;10306191;28;20305;-69
2023/03/25 11:37:59;;;;;;;3.00;0.93;;;20.80;74.60;;;;;;10307824;28;20339;-71
2023/03/25 11:43:01;;;;;;;3.40;1.30;;;19.90;77.50;;;;;;10310390;28;20273;-71
2023/03/25 11:48:35;;;;;;;3.53;1.40;;;19.20;80.60;;;;;;10301407;28;20283;-76
2023/03/25 11:53:35;;;;;;;4.60;1.37;;;18.00;85.40;;;;;;10313839;28;20221;-74
2023/03/25 11:58:38;;;;;;;5.07;1.13;;;16.80;91.20;;;;;;10304373;28;20690;-71
2023/03/25 12:03:38;;;;;;;2.40;0.80;;;16.60;92.20;;;;;;10313221;28;20231;-72
2023/03/25 12:08:52;;;;;;;3.63;1.33;;;16.30;93.40;;;;;;10315844;28;20313;-74
2023/03/25 12:14:11;;;;;;;2.40;0.80;;;16.00;93.20;;;;;;10315643;28;20218;-74
2023/03/25 12:19:30;;;;;;;2.00;0.90;;;15.80;94.60;;;;;;10298006;28;20237;-73
2023/03/25 12:25:06;;;;;;;2.77;0.80;;;15.50;95.70;;;;;;10308014;28;20229;-73
2023/03/25 12:30:33;;;;;;;3.60;1.00;;;15.50;96.60;;;;;;10305979;28;20794;-73
2023/03/25 12:35:48;;;;;;;3.17;1.00;;;15.50;96.70;;;;;;10310666;28;20629;-73
2023/03/25 12:40:55;;;;;;;3.30;1.10;;;15.20;95.70;;;;;;10333157;28;20256;-72
2023/03/25 12:46:27;;;;;;;6.63;1.10;;;14.80;96.70;;;;;;10319591;28;20274;-74
2023/03/25 12:51:53;;;;;;;2.40;0.90;;;15.10;99.20;;;;;;10325770;28;20217;-72
2023/03/25 12:57:08;;;;;;;2.27;0.83;;;14.90;96.70;;;;;;10314773;28;20309;-74
2023/03/25 13:02:24;;;;;;;3.03;1.00;;;15.00;96.70;;;;;;10306937;28;20596;-73
2023/03/25 13:07:39;;;;;;;3.80;0.90;;;14.90;95.20;;;;;;10318118;28;20259;-75
2023/03/25 13:12:46;;;;;;;4.23;0.90;;;14.30;97.70;;;;;;10322467;28;20691;-73
2023/03/25 13:17:50;;;;;;;3.33;0.80;;;13.10;99.90;;;;;;10314987;28;20281;-73
2023/03/25 13:23:00;;;;;;;3.87;0.90;;;12.80;99.90;;;;;;10313961;28;20229;-74
2023/03/25 13:28:05;;;;;;;3.07;1.00;;;13.60;99.90;;;;;;10306408;28;20613;-73
2023/03/25 13:33:12;;;;;;;3.23;0.80;;;13.90;99.90;;;;;;10312386;28;20792;-74
2023/03/25 13:38:45;;;;;;;2.97;1.03;;;14.20;99.90;;;;;;10307107;28;20256;-75
2023/03/25 13:44:19;;;;;;;2.83;1.07;;;14.10;99.90;;;;;;10306625;28;20219;-72
2023/03/25 13:49:33;;;;;;;3.63;1.00;;;14.10;99.90;;;;;;10306810;28;20793;-73
2023/03/25 13:54:36;;;;;;;3.70;1.00;;;14.30;99.90;;;;;;10308176;28;20227;-73
2023/03/25 13:59:50;;;;;;;3.63;0.80;;;14.50;99.90;;;;;;10309815;28;20320;-73
2023/03/25 14:05:16;;;;;;;5.83;1.27;;;14.70;99.90;;;;;;10305485;28;20227;-73
2023/03/25 14:10:35;;;;;;;3.40;0.93;;;14.90;99.90;;;;;;10296378;28;20301;-73
2023/03/25 14:15:39;;;;;;;2.27;0.87;;;14.60;99.30;;;;;;10315856;28;20310;-73
2023/03/25 14:20:40;;;;;;;1.50;0.63;;;14.50;98.30;;;;;;10309695;28;20238;-73
2023/03/25 14:25:48;;;;;;;4.47;0.90;;;14.60;97.80;;;;;;10306884;28;20273;-73
2023/03/25 14:31:11;;;;;;;5.17;1.03;;;14.80;95.70;;;;;;10317989;28;20222;-73
2023/03/25 14:36:15;;;;;;;3.33;1.07;;;15.10;94.80;;;;;;10313877;28;20902;-73
2023/03/25 14:41:16;;;;;;;5.17;1.00;;;15.00;92.60;;;;;;10327978;28;20224;-73
2023/03/25 14:46:22;;;;;;;1.23;0.73;;;14.60;93.00;;;;;;10323431;28;20219;-74
2023/03/25 14:51:26;;;;;;;2.57;0.70;;;14.60;93.40;;;;;;10305894;28;20721;-73
2023/03/25 14:56:40;;;;;;;4.93;1.20;;;14.80;93.40;;;;;;10307468;28;20228;-72
2023/03/25 15:01:43;;;;;;;4.83;0.97;;;14.60;93.30;;;;;;10316163;28;20624;-73
2023/03/25 15:06:48;;;;;;;2.73;0.73;;;14.50;93.10;;;;;;10304752;28;20678;-73
2023/03/25 15:12:13;;;;;;;4.47;1.27;;;14.50;93.60;;;;;;10309425;28;20702;-72
2023/03/25 15:17:46;;;;;;;5.43;1.50;;;14.50;94.40;;;;;;10315097;28;20230;-72
2023/03/25 15:23:26;;;;;;;4.90;1.53;;;14.50;94.20;;;;;;10303920;28;20249;-73
2023/03/25 15:28:53;;;;;;;4.90;1.20;;;14.40;94.50;;;;;;10305112;28;20252;-73
2023/03/25 15:34:04;;;;;;;2.13;0.83;;;14.50;93.30;;;;;;10309459;28;20233;-73
2023/03/25 15:39:20;;;;;;;2.27;0.93;;;14.50;90.40;;;;;;10301880;28;20371;-74
2023/03/25 15:44:26;;;;;;;5.33;1.30;;;14.50;90.90;;;;;;10314019;28;20245;-73
2023/03/25 15:50:07;;;;;;;2.73;0.83;;;14.60;89.50;;;;;;10305341;28;20253;-72
2023/03/25 15:55:13;;;;;;;6.17;1.50;;;14.40;88.70;;;;;;10303249;28;20586;-73
2023/03/25 16:00:23;;;;;;;3.90;1.10;;;14.30;87.20;;;;;;10307021;28;20225;-73
2023/03/25 16:05:24;;;;;;;2.97;1.30;;;14.20;86.60;;;;;;10328580;28;20242;-72
2023/03/25 16:10:33;;;;;;;5.73;1.60;;;14.30;89.00;;;;;;10313169;28;20308;-72
2023/03/25 16:15:35;;;;;;;4.73;1.20;;;14.50;88.70;;;;;;10319586;28;20215;-73
2023/03/25 16:20:36;;;;;;;3.97;1.30;;;14.60;88.40;;;;;;10313418;28;20230;-72
2023/03/25 16:25:40;;;;;;;3.50;1.00;;;14.60;89.00;;;;;;10311776;28;20274;-74
2023/03/25 16:30:43;;;;;;;4.77;1.60;;;14.40;89.70;;;;;;10314626;28;20646;-73
2023/03/25 16:35:48;;;;;;;4.47;1.10;;;14.20;90.60;;;;;;10328917;28;20720;-72
2023/03/25 16:40:49;;;;;;;4.73;1.50;;;13.90;90.50;;;;;;10325849;28;20292;-75
2023/03/25 16:45:51;;;;;;;4.83;1.30;;;13.90;91.70;;;;;;10320683;28;20217;-74
2023/03/25 16:51:04;;;;;;;5.93;1.67;;;13.90;91.60;;;;;;10308683;28;20227;-73
2023/03/25 16:56:08;;;;;;;5.60;1.40;;;13.90;92.30;;;;;;10315563;28;20222;-73
2023/03/25 17:01:10;;;;;;;4.23;1.10;;;13.60;92.10;;;;;;10320017;28;20238;-73
2023/03/25 17:06:13;;;;;;;5.90;1.50;;;13.30;93.20;;;;;;10321141;28;20298;-72
2023/03/25 17:11:14;;;;;;;4.33;1.67;;;13.00;94.00;;;;;;10314738;28;20615;-73
2023/03/25 17:16:16;;;;;;;5.67;1.50;;;12.90;94.20;;;;;;10321413;28;20270;-72
2023/03/25 17:21:26;;;;;;;6.37;1.33;;;12.80;94.80;;;;;;10315573;28;20261;-74
2023/03/25 17:26:54;;;;;;;3.50;1.50;;;12.80;94.80;;;;;;10317826;28;20230;-74
2023/03/25 17:31:57;;;;;;;3.57;1.47;;;12.90;95.00;;;;;;10313406;28;20222;-73
2023/03/25 17:37:01;;;;;;;6.23;1.50;;;12.90;95.20;;;;;;10305989;28;20250;-72
2023/03/25 17:42:12;;;;;;;4.33;1.93;;;12.80;95.90;;;;;;10306109;28;20309;-74
2023/03/25 17:47:15;;;;;;;8.10;1.70;;;12.80;95.90;;;;;;10311614;28;20222;-73
2023/03/25 17:52:16;;;;;;;3.33;0.90;;;12.80;95.90;;;;;;10314404;28;20632;-74
2023/03/25 17:57:18;;;;;;;5.20;1.17;;;12.70;99.90;;;;;;10310874;28;20225;-73
2023/03/25 18:02:19;;;;;;;2.37;0.80;;;12.30;99.90;;;;;;10314611;28;20222;-72
2023/03/25 18:07:20;;;;;;;0.80;0.50;;;12.10;99.90;;;;;;10309892;28;20257;-72
2023/03/25 18:12:20;;;;;;;1.23;0.40;;;11.90;99.90;;;;;;10307038;28;20717;-73
2023/03/25 18:17:21;;;;;;;1.80;0.53;;;11.70;99.90;;;;;;10316257;28;20239;-73
2023/03/25 18:22:21;;;;;;;1.23;0.63;;;11.50;99.90;;;;;;10307682;28;20221;-72
2023/03/25 18:27:22;;;;;;;1.13;0.90;;;11.30;99.90;;;;;;10304945;28;20226;-73
2023/03/25 18:32:23;;;;;;;7.83;3.70;;;11.10;99.90;;;;;;10315575;28;20361;-74
2023/03/25 18:37:23;;;;;;;1.07;0.70;;;10.90;99.90;;;;;;10312647;28;20234;-74
2023/03/25 18:42:24;;;;;;;2.50;0.50;;;10.70;99.90;;;;;;10312525;28;20249;-73
2023/03/25 18:47:24;;;;;;;0.97;0.40;;;10.50;99.90;;;;;;10323961;28;20323;-74
2023/03/25 18:52:25;;;;;;;2.53;0.63;;;10.40;99.90;;;;;;10317984;28;20306;-72
2023/03/25 18:57:25;;;;;;;0.93;0.40;;;10.30;99.90;;;;;;10314244;28;20222;-71
2023/03/25 19:02:29;;;;;;;1.37;0.67;;;10.10;99.90;;;;;;10308129;28;20309;-75
2023/03/25 19:07:30;;;;;;;1.63;0.80;;;10.10;99.90;;;;;;10307276;28;20233;-73
2023/03/25 19:12:30;;;;;;;2.50;0.50;;;10.00;99.90;;;;;;10325320;28;20306;-72
2023/03/25 19:17:31;;;;;;;3.33;0.60;;;10.00;99.90;;;;;;10306507;28;20230;-75
2023/03/25 19:22:31;;;;;;;1.13;0.53;;;9.90;99.90;;;;;;10306835;28;20230;-72
2023/03/25 19:27:32;;;;;;;1.70;1.00;;;9.80;99.90;;;;;;10313690;28;20244;-73
2023/03/25 19:32:33;;;;;;;2.27;0.90;;;9.80;99.90;;;;;;10306840;28;20222;-72
2023/03/25 19:37:36;;;;;;;1.20;0.50;;;9.70;99.90;;;;;;10309308;28;20225;-73
2023/03/25 19:42:38;;;;;;;2.93;1.13;;;9.70;99.90;;;;;;10307395;28;20216;-75
2023/03/25 19:47:42;;;;;;;3.77;1.10;;;9.70;99.90;;;;;;10317750;28;20218;-73
2023/03/25 19:52:44;;;;;;;5.13;0.93;;;9.80;99.90;;;;;;10312307;28;20683;-75
2023/03/25 19:57:46;;;;;;;2.73;0.70;;;9.90;99.90;;;;;;10324934;28;20230;-73
2023/03/25 20:02:51;;;;;;;5.70;0.90;;;10.00;99.90;;;;;;10315972;28;20297;-73
2023/03/25 20:07:54;;;;;;;4.10;1.20;;;10.10;99.90;;;;;;10310228;28;20237;-73
2023/03/25 20:12:55;;;;;;;3.30;1.17;;;10.10;99.90;;;;;;10323683;28;20754;-73
2023/03/25 20:17:56;;;;;;;3.33;1.07;;;10.20;99.90;;;;;;10317096;28;20230;-73
2023/03/25 20:22:57;;;;;;;3.40;0.97;;;10.20;99.90;;;;;;10316644;28;20222;-73
2023/03/25 20:27:58;;;;;;;5.00;1.30;;;10.10;99.90;;;;;;10332676;28;20222;-74
2023/03/25 20:32:58;;;;;;;3.40;1.30;;;10.00;99.90;;;;;;10317673;28;20591;-72
2023/03/25 20:37:59;;;;;;;6.23;1.30;;;9.80;99.90;;;;;;10308456;28;20248;-73
2023/03/25 20:43:00;;;;;;;2.97;1.33;;;9.70;99.90;;;;;;10332726;28;20211;-72
2023/03/25 20:48:00;;;;;;;2.13;1.37;;;9.60;99.90;;;;;;10312524;28;20246;-72
2023/03/25 20:53:03;;;;;;;5.13;1.80;;;9.60;99.90;;;;;;10321232;28;20215;-72
2023/03/25 20:58:04;;;;;;;5.70;1.50;;;9.50;99.90;;;;;;10315371;28;20313;-75
2023/03/25 21:03:05;;;;;;;4.53;1.70;;;9.40;99.90;;;;;;10321264;28;20229;-75
2023/03/25 21:08:06;;;;;;;4.07;1.50;;;9.40;99.90;;;;;;10327699;28;20218;-72
2023/03/25 21:13:06;;;;;;;4.50;1.60;;;9.30;99.90;;;;;;10307687;28;20225;-73
2023/03/25 21:18:07;;;;;;;5.80;2.00;;;9.40;99.90;;;;;;10321813;28;20252;-74
2023/03/25 21:23:08;;;;;;;2.77;1.60;;;9.40;99.90;;;;;;10307562;28;20224;-73
2023/03/25 21:28:09;;;;;;;2.53;1.27;;;9.40;99.90;;;;;;10313487;28;20225;-72
2023/03/25 21:33:09;;;;;;;4.60;1.47;;;9.40;99.90;;;;;;10314212;28;20321;-73
2023/03/25 21:38:13;;;;;;;2.07;1.13;;;9.50;99.90;;;;;;10312879;28;20226;-73
2023/03/25 21:43:13;;;;;;;2.33;1.30;;;9.50;99.90;;;;;;10307556;28;20210;-73
2023/03/25 21:48:16;;;;;;;2.87;1.30;;;9.50;99.90;;;;;;10314184;28;20587;-73
2023/03/25 21:53:20;;;;;;;2.93;1.10;;;9.50;99.90;;;;;;10311293;28;20272;-71
2023/03/25 21:58:21;;;;;;;2.37;1.13;;;9.50;99.90;;;;;;10305991;28;20230;-72
2023/03/25 22:03:28;;;;;;;5.13;1.17;;;9.40;99.90;;;;;;10312244;28;20230;-71
2023/03/25 22:08:29;;;;;;;3.53;1.00;;;9.30;99.90;;;;;;10316426;28;20222;-73
2023/03/25 22:13:30;;;;;;;3.43;1.43;;;9.30;99.90;;;;;;10308990;28;20689;-72
2023/03/25 22:18:31;;;;;;;3.80;1.23;;;9.20;99.90;;;;;;10315708;28;20234;-73
2023/03/25 22:23:31;;;;;;;6.23;1.67;;;9.10;99.90;;;;;;10325988;28;20210;-73
2023/03/25 22:28:33;;;;;;;5.17;1.40;;;9.00;99.90;;;;;;10308530;28;20801;-73
2023/03/25 22:33:33;;;;;;;3.83;1.33;;;9.00;99.90;;;;;;10312076;28;20689;-73
2023/03/25 22:38:55;;;;;;;4.87;1.30;;;9.00;99.90;;;;;;10313859;28;20265;-73
2023/03/25 22:43:56;;;;;;;5.53;1.50;;;9.10;99.90;;;;;;10317649;28;20240;-74
2023/03/25 22:48:56;;;;;;;5.50;1.50;;;9.10;99.90;;;;;;10313262;28;20233;-74
2023/03/25 22:53:57;;;;;;;3.47;1.43;;;9.10;99.90;;;;;;10310867;28;20243;-72
2023/03/25 22:58:59;;;;;;;5.23;1.20;;;9.30;99.90;;;;;;10327303;28;20221;-73
2023/03/25 23:04:01;;;;;;;5.83;1.53;;;9.40;99.90;;;;;;10310664;28;20267;-73
2023/03/25 23:09:03;;;;;;;7.50;1.80;;;9.50;99.90;;;;;;10310063;28;20276;-74
2023/03/25 23:14:07;;;;;;;4.27;1.23;;;9.60;99.90;;;;;;10302760;28;20721;-74
2023/03/25 23:19:08;;;;;;;5.20;1.67;;;9.70;99.90;;;;;;10309293;28;20222;-73
2023/03/25 23:24:10;;;;;;;6.80;1.47;;;9.70;99.90;;;;;;10306537;28;20210;-72
2023/03/25 23:29:14;;;;;;;5.77;1.20;;;9.70;99.90;;;;;;10310017;28;20313;-73
2023/03/25 23:34:16;;;;;;;4.67;1.37;;;9.80;99.90;;;;;;10309000;28;20219;-73
2023/03/25 23:39:21;;;;;;;2.70;1.33;;;9.80;99.90;;;;;;10308422;28;20604;-72
2023/03/25 23:44:22;;;;;;;4.23;1.70;;;9.90;99.90;;;;;;10305115;28;20597;-72
2023/03/25 23:49:22;;;;;;;7.07;1.83;;;9.90;99.90;;;;;;10307640;28;20221;-73
2023/03/25 23:54:23;;;;;;;5.23;1.40;;;9.90;99.90;;;;;;10312133;28;20244;-72
2023/03/25 23:59:23;;;;;;;7.70;2.00;;;9.90;99.90;;;;;;10309558;28;20235;-73
